Time;durP1;ratioP1;P1;durP2;ratioP2;P2;SDS_P1;SDS_P2;PMS_P1;PMS_P2;Temp;Humidity;BMP_temperature;BMP_pressure;BME280_temperature;BME280_humidity;BME280_pressure;Samples;Min_cycle;Max_cycle;Signal;HPM_P1;HPM_P2
2021/09/02 00:01:45;;;;;;;20.00;15.50;;;;;;;12.90;97.90;99568.13;111252;1198;64002;-89
2021/09/02 00:04:12;;;;;;;19.60;15.40;;;;;;;12.89;98.07;99561.23;111168;1200;61039;-87
2021/09/02 00:06:38;;;;;;;19.70;14.90;;;;;;;12.89;98.09;99559.60;111226;1200;61117;-87
2021/09/02 00:09:05;;;;;;;18.90;14.90;;;;;;;12.90;98.02;99559.57;111242;1204;64764;-87
2021/09/02 00:11:31;;;;;;;19.20;15.40;;;;;;;12.88;98.17;99561.31;111254;1204;61759;-88
2021/09/02 00:13:58;;;;;;;22.60;16.20;;;;;;;12.86;98.14;99561.95;111256;1204;63971;-87
2021/09/02 00:16:25;;;;;;;21.20;16.50;;;;;;;12.86;98.25;99561.83;111227;1204;60962;-87
2021/09/02 00:18:51;;;;;;;20.70;16.40;;;;;;;12.84;98.30;99567.97;111152;1203;61087;-88
2021/09/02 00:21:18;;;;;;;20.70;16.00;;;;;;;12.83;98.45;99568.59;111197;1209;66123;-87
2021/09/02 00:23:44;;;;;;;21.80;17.30;;;;;;;12.82;98.43;99572.94;111213;1205;61065;-87
2021/09/02 00:26:11;;;;;;;25.70;18.40;;;;;;;12.84;98.74;99572.06;111214;1207;63968;-87
2021/09/02 00:28:38;;;;;;;25.60;18.30;;;;;;;12.87;98.93;99577.42;111214;1202;61056;-87
2021/09/02 00:31:05;;;;;;;22.80;18.50;;;;;;;12.89;98.98;99576.71;111178;1203;61184;-87
2021/09/02 00:33:31;;;;;;;22.70;17.70;;;;;;;12.90;98.79;99577.39;111182;1197;65796;-87
2021/09/02 00:35:58;;;;;;;25.80;17.50;;;;;;;12.90;98.92;99575.59;111214;1206;61031;-87
2021/09/02 00:38:25;;;;;;;25.40;17.40;;;;;;;12.92;99.03;99577.78;111229;1206;63776;-87
2021/09/02 00:40:51;;;;;;;22.20;17.40;;;;;;;12.94;99.12;99580.13;111196;1198;61094;-88
2021/09/02 00:43:18;;;;;;;25.00;17.30;;;;;;;12.96;99.11;99576.46;111208;1206;61070;-86
2021/09/02 00:45:45;;;;;;;22.60;17.80;;;;;;;13.00;99.20;99574.96;111146;1207;65683;-88
2021/09/02 00:48:11;;;;;;;25.50;17.60;;;;;;;13.03;99.31;99576.36;111216;1205;61032;-88
2021/09/02 00:50:38;;;;;;;22.80;17.70;;;;;;;13.06;99.27;99576.31;111249;1208;63822;-86
2021/09/02 00:53:04;;;;;;;23.00;17.90;;;;;;;13.08;99.40;99581.52;111473;1203;61113;-89
2021/09/02 00:55:32;;;;;;;25.10;17.80;;;;;;;13.09;99.40;99581.99;111968;1202;61010;-87
2021/09/02 00:58:00;;;;;;;21.80;16.10;;;;;;;13.11;99.45;99583.69;112125;1205;66039;-86
2021/09/02 01:00:27;;;;;;;20.30;16.00;;;;;;;13.11;99.42;99579.58;111664;1198;61064;-88
2021/09/02 01:02:54;;;;;;;23.70;16.70;;;;;;;13.14;99.48;99581.98;112641;1206;63670;-86
2021/09/02 01:05:22;;;;;;;21.30;17.40;;;;;;;13.18;99.56;99581.05;112013;1205;60998;-87
2021/09/02 01:07:49;;;;;;;22.00;16.50;;;;;;;13.19;99.53;99579.19;111227;1198;61078;-88
2021/09/02 01:10:16;;;;;;;23.90;18.50;;;;;;;13.18;99.54;99579.06;111202;1205;66028;-89
2021/09/02 01:12:50;;;;;;;23.30;18.20;;;;;;;13.18;99.51;99580.88;111119;1205;61053;-89
2021/09/02 01:15:21;;;;;;;20.10;17.20;;;;;;;13.16;99.42;99579.91;110886;1198;62710;-86
2021/09/02 01:17:50;;;;;;;23.30;17.50;;;;;;;13.14;99.44;99573.79;111259;1198;61194;-87
2021/09/02 01:20:22;;;;;;;22.00;17.00;;;;;;;13.12;99.59;99574.83;111188;1203;61089;-87
2021/09/02 01:22:51;;;;;;;23.50;19.40;;;;;;;13.11;99.58;99571.31;111242;1205;74764;-87
2021/09/02 01:25:23;;;;;;;26.10;20.20;;;;;;;13.10;99.74;99568.04;111196;1205;61543;-87
2021/09/02 01:28:00;;;;;;;26.90;22.00;;;;;;;13.07;99.78;99566.23;111227;1205;63983;-87
2021/09/02 01:30:27;;;;;;;26.60;22.60;;;;;;;13.04;99.74;99567.53;111242;1204;61083;-87
2021/09/02 01:32:55;;;;;;;25.00;20.70;;;;;;;13.00;99.77;99567.08;111118;1198;61503;-87
2021/09/02 01:35:23;;;;;;;24.20;21.20;;;;;;;12.97;99.91;99565.17;111206;1204;64439;-87
2021/09/02 01:37:55;;;;;;;26.30;21.50;;;;;;;12.95;99.98;99564.73;111241;1205;61086;-86
2021/09/02 01:40:32;;;;;;;30.80;22.40;;;;;;;12.96;99.95;99566.12;111197;1205;62731;-87
2021/09/02 01:43:00;;;;;;;37.30;27.40;;;;;;;12.99;100.00;99563.25;111206;1199;61097;-87
2021/09/02 01:45:27;;;;;;;42.80;32.00;;;;;;;13.03;100.00;99554.79;111270;1198;61078;-87
2021/09/02 01:48:00;;;;;;;46.00;34.80;;;;;;;13.04;100.00;99551.33;111170;1199;64639;-87
2021/09/02 01:50:29;;;;;;;61.70;45.20;;;;;;;13.05;100.00;99553.17;111274;1204;61033;-87
2021/09/02 01:52:58;;;;;;;61.90;46.40;;;;;;;13.05;100.00;99556.08;111312;1205;62727;-86
2021/09/02 01:55:26;;;;;;;57.40;44.60;;;;;;;13.02;100.00;99557.54;111231;1198;61192;-87
2021/09/02 01:57:53;;;;;;;53.10;42.40;;;;;;;12.99;100.00;99554.32;111251;1200;61085;-88
2021/09/02 02:00:45;;;;;;;48.80;41.80;;;;;;;12.97;100.00;99550.35;111282;1207;66026;-87
2021/09/02 02:03:12;;;;;;;42.50;37.90;;;;;;;12.96;100.00;99547.23;111271;1205;61083;-88
2021/09/02 02:05:39;;;;;;;43.00;36.90;;;;;;;12.93;100.00;99548.33;111240;1197;64027;-86
2021/09/02 02:08:05;;;;;;;41.80;35.80;;;;;;;12.88;100.00;99552.55;111182;1202;61180;-87
2021/09/02 02:10:32;;;;;;;43.20;38.50;;;;;;;12.85;100.00;99556.90;111276;1200;61114;-86
2021/09/02 02:13:01;;;;;;;47.10;38.60;;;;;;;12.80;100.00;99561.88;111206;1205;64731;-87
2021/09/02 02:15:29;;;;;;;43.00;34.70;;;;;;;12.77;100.00;99562.74;111308;1205;61047;-87
2021/09/02 02:17:57;;;;;;;41.40;34.20;;;;;;;12.76;100.00;99561.92;111218;1206;62606;-86
2021/09/02 02:20:24;;;;;;;41.70;32.60;;;;;;;12.75;100.00;99555.06;111249;1203;61075;-87
2021/09/02 02:22:51;;;;;;;32.80;28.80;;;;;;;12.73;100.00;99551.80;111213;1202;61013;-86
2021/09/02 02:25:17;;;;;;;36.00;26.50;;;;;;;12.70;100.00;99551.64;111164;1205;64639;-86
2021/09/02 02:27:45;;;;;;;30.10;25.50;;;;;;;12.71;100.00;99554.40;111206;1205;61034;-86
2021/09/02 02:30:16;;;;;;;29.80;22.90;;;;;;;12.72;100.00;99549.34;111227;1205;62593;-87
2021/09/02 02:32:43;;;;;;;25.80;22.10;;;;;;;12.72;100.00;99549.70;111182;1205;61048;-89
2021/09/02 02:35:11;;;;;;;25.20;20.60;;;;;;;12.72;100.00;99550.41;111104;1203;61016;-86
2021/09/02 02:37:38;;;;;;;26.50;20.90;;;;;;;12.74;100.00;99551.73;111150;1205;66051;-87
2021/09/02 02:40:06;;;;;;;22.20;19.80;;;;;;;12.77;100.00;99548.48;111112;1197;61088;-87
2021/09/02 02:42:33;;;;;;;23.00;19.40;;;;;;;12.79;100.00;99546.38;111125;1204;63823;-87
2021/09/02 02:45:00;;;;;;;28.40;20.40;;;;;;;12.82;100.00;99548.35;111102;1198;61100;-87
2021/09/02 02:47:26;;;;;;;22.10;17.60;;;;;;;12.84;100.00;99547.10;111140;1203;61026;-87
2021/09/02 02:49:53;;;;;;;19.90;17.20;;;;;;;12.85;100.00;99547.98;111189;1206;66029;-87
2021/09/02 02:52:20;;;;;;;24.00;18.60;;;;;;;12.88;100.00;99546.02;111107;1198;61107;-87
2021/09/02 02:54:46;;;;;;;26.20;19.10;;;;;;;12.91;100.00;99544.52;111176;1205;64000;-87
2021/09/02 02:57:13;;;;;;;26.10;20.50;;;;;;;12.94;100.00;99545.16;111056;1198;61106;-86
2021/09/02 02:59:39;;;;;;;25.70;21.60;;;;;;;12.96;100.00;99548.45;110873;1203;61104;-86
2021/09/02 03:02:06;;;;;;;27.20;24.40;;;;;;;12.98;100.00;99547.45;110807;1205;65916;-87
2021/09/02 03:04:33;;;;;;;28.90;25.80;;;;;;;12.97;100.00;99548.41;110828;1204;62694;-87
2021/09/02 03:06:59;;;;;;;28.50;24.80;;;;;;;12.98;100.00;99549.60;110960;1198;64020;-87
2021/09/02 03:09:26;;;;;;;30.00;24.90;;;;;;;12.97;100.00;99551.05;111102;1205;61075;-87
2021/09/02 03:11:53;;;;;;;28.60;21.40;;;;;;;12.99;100.00;99556.27;111088;1199;61004;-88
2021/09/02 03:14:19;;;;;;;28.20;25.00;;;;;;;13.00;100.00;99551.98;111106;1205;65997;-88
2021/09/02 03:16:46;;;;;;;33.60;24.80;;;;;;;12.97;100.00;99551.98;111195;1205;60980;-88
2021/09/02 03:19:13;;;;;;;23.20;20.40;;;;;;;12.95;100.00;99554.79;111183;1207;63641;-88
2021/09/02 03:21:40;;;;;;;19.40;17.10;;;;;;;12.94;100.00;99555.58;111177;1204;61036;-88
2021/09/02 03:24:06;;;;;;;18.80;15.10;;;;;;;12.93;100.00;99551.68;111183;1203;61007;-89
2021/09/02 03:26:33;;;;;;;17.80;15.90;;;;;;;12.92;100.00;99549.23;111207;1206;65326;-88
2021/09/02 03:28:59;;;;;;;23.50;19.20;;;;;;;12.91;100.00;99549.52;111200;1205;61123;-88
2021/09/02 03:31:26;;;;;;;25.10;20.40;;;;;;;12.91;100.00;99550.56;111187;1205;62553;-88
2021/09/02 03:33:53;;;;;;;25.00;20.60;;;;;;;12.90;100.00;99558.86;111199;1205;61518;-87
2021/09/02 03:36:20;;;;;;;21.30;18.50;;;;;;;12.89;100.00;99563.76;111192;1200;61145;-86
2021/09/02 03:38:46;;;;;;;20.60;16.80;;;;;;;12.89;100.00;99565.66;111195;1204;66658;-87
2021/09/02 03:41:13;;;;;;;19.10;14.60;;;;;;;12.90;100.00;99573.48;111230;1206;61067;-88
2021/09/02 03:43:39;;;;;;;15.80;14.00;;;;;;;12.90;100.00;99577.20;111216;1205;62422;-88
2021/09/02 03:46:06;;;;;;;17.50;13.20;;;;;;;12.91;100.00;99577.90;111243;1203;61053;-87
2021/09/02 03:48:33;;;;;;;15.20;12.60;;;;;;;12.91;100.00;99582.15;111283;1205;61022;-87
2021/09/02 03:50:59;;;;;;;15.30;12.70;;;;;;;12.92;100.00;99585.13;111389;1205;64626;-85
2021/09/02 03:53:26;;;;;;;15.90;13.50;;;;;;;12.90;100.00;99585.44;111478;1203;60982;-86
2021/09/02 03:55:53;;;;;;;14.80;12.20;;;;;;;12.91;100.00;99583.04;112686;1205;62634;-86
2021/09/02 03:58:19;;;;;;;16.60;13.30;;;;;;;12.91;100.00;99586.94;112130;1205;61007;-86
2021/09/02 04:00:46;;;;;;;16.10;13.30;;;;;;;12.93;100.00;99589.52;112105;1205;61034;-86
2021/09/02 04:03:12;;;;;;;14.30;12.40;;;;;;;12.94;100.00;99588.19;112039;1206;65993;-87
2021/09/02 04:05:39;;;;;;;13.90;12.30;;;;;;;12.96;100.00;99587.48;111350;1205;61190;-88
2021/09/02 04:08:06;;;;;;;15.70;12.50;;;;;;;12.99;100.00;99590.05;111082;1198;63963;-93
2021/09/02 04:10:33;;;;;;;14.30;12.60;;;;;;;13.00;100.00;99588.52;111161;1201;61184;-90
2021/09/02 04:12:59;;;;;;;13.80;11.20;;;;;;;12.97;100.00;99593.14;111147;1202;61070;-88
2021/09/02 04:15:26;;;;;;;12.90;11.50;;;;;;;12.96;100.00;99595.15;111169;1205;65727;-87
2021/09/02 04:17:53;;;;;;;16.50;11.80;;;;;;;12.98;100.00;99596.69;111160;1205;61162;-87
2021/09/02 04:20:20;;;;;;;12.90;10.80;;;;;;;13.00;100.00;99596.38;111106;1205;72753;-87
2021/09/02 04:22:47;;;;;;;14.00;11.20;;;;;;;13.04;100.00;99597.33;111109;1202;61116;-88
2021/09/02 04:25:14;;;;;;;15.00;11.10;;;;;;;13.05;100.00;99592.97;111105;1205;61055;-87
2021/09/02 04:27:41;;;;;;;12.10;10.00;;;;;;;13.09;100.00;99592.54;111119;1203;64346;-87
2021/09/02 04:30:08;;;;;;;12.00;10.00;;;;;;;13.16;100.00;99589.38;111189;1205;61126;-87
2021/09/02 04:32:34;;;;;;;13.10;10.40;;;;;;;13.17;100.00;99593.96;111211;1205;64957;-87
2021/09/02 04:35:01;;;;;;;13.10;9.60;;;;;;;13.19;100.00;99594.34;111161;1203;61190;-87
2021/09/02 04:37:28;;;;;;;12.50;10.20;;;;;;;13.38;100.00;99595.40;111189;1203;61107;-87
2021/09/02 04:39:54;;;;;;;14.50;10.80;;;;;;;13.46;100.00;99595.36;111133;1205;65679;-88
2021/09/02 04:42:21;;;;;;;12.50;9.80;;;;;;;13.62;100.00;99597.84;111123;1205;61074;-88
2021/09/02 04:44:48;;;;;;;12.40;10.30;;;;;;;14.05;99.74;99597.48;111063;1206;63824;-88
2021/09/02 04:47:14;;;;;;;14.10;10.20;;;;;;;14.42;98.77;99599.45;111093;1205;61071;-87
2021/09/02 04:49:41;;;;;;;11.70;9.20;;;;;;;14.74;97.84;99604.24;111053;1199;61094;-87
2021/09/02 04:52:08;;;;;;;11.90;9.80;;;;;;;15.07;96.97;99607.54;111039;1205;66685;-88
2021/09/02 04:54:34;;;;;;;12.30;9.90;;;;;;;15.32;95.96;99603.63;111069;1205;62773;-88
2021/09/02 04:57:01;;;;;;;9.80;8.90;;;;;;;15.57;94.91;99606.75;111120;1205;62616;-88
2021/09/02 04:59:27;;;;;;;13.10;9.70;;;;;;;15.69;93.77;99613.92;111101;1199;61114;-88
2021/09/02 05:01:54;;;;;;;10.30;9.20;;;;;;;15.93;93.74;99615.94;111217;1198;61203;-88
2021/09/02 05:04:21;;;;;;;10.30;9.20;;;;;;;16.28;92.72;99614.02;111111;1205;66019;-88
2021/09/02 05:06:47;;;;;;;11.40;9.00;;;;;;;16.54;91.95;99617.36;111220;1205;61071;-88
2021/09/02 05:09:14;;;;;;;10.30;9.20;;;;;;;16.78;91.05;99614.29;111167;1205;62356;-88
2021/09/02 05:11:41;;;;;;;12.20;10.00;;;;;;;16.95;90.15;99616.71;111199;1199;61071;-89
2021/09/02 05:14:07;;;;;;;10.40;9.10;;;;;;;17.10;89.61;99620.42;111245;1199;61095;-88
2021/09/02 05:16:34;;;;;;;9.90;8.90;;;;;;;17.24;89.30;99618.36;111150;1205;66015;-88
2021/09/02 05:19:01;;;;;;;11.10;9.90;;;;;;;16.91;89.46;99621.67;110995;1207;61166;-88
2021/09/02 05:21:29;;;;;;;11.20;10.00;;;;;;;16.41;90.46;99630.53;111110;1200;62624;-87
2021/09/02 05:23:55;;;;;;;11.80;9.70;;;;;;;16.12;91.39;99635.42;111151;1198;61788;-87
2021/09/02 05:26:22;;;;;;;12.80;11.00;;;;;;;15.94;91.58;99638.67;111386;1203;61122;-87
2021/09/02 05:28:49;;;;;;;11.40;10.20;;;;;;;15.73;91.76;99641.19;111406;1205;65811;-81
2021/09/02 05:31:15;;;;;;;11.20;9.90;;;;;;;15.56;91.80;99641.52;111014;1198;61092;-82
2021/09/02 05:33:42;;;;;;;13.30;9.60;;;;;;;15.47;92.04;99644.10;111020;1206;64011;-81
2021/09/02 05:36:10;;;;;;;13.00;9.70;;;;;;;15.45;92.21;99644.89;111075;1198;61104;-81
2021/09/02 05:38:38;;;;;;;13.40;10.20;;;;;;;15.59;91.73;99643.83;111097;1201;61050;-81
2021/09/02 05:41:05;;;;;;;12.00;9.60;;;;;;;15.88;91.36;99643.41;111130;1205;66737;-82
2021/09/02 05:43:32;;;;;;;11.40;9.30;;;;;;;16.31;90.55;99642.16;111078;1205;61130;-81
2021/09/02 05:45:59;;;;;;;9.80;8.90;;;;;;;16.68;89.91;99645.81;111023;1206;63652;-81
2021/09/02 05:48:26;;;;;;;10.50;9.40;;;;;;;16.99;88.89;99645.44;111086;1201;61070;-79
2021/09/02 05:50:53;;;;;;;10.60;8.60;;;;;;;17.10;88.20;99645.54;111053;1202;61040;-79
2021/09/02 05:53:21;;;;;;;10.80;9.70;;;;;;;17.21;87.88;99644.27;111101;1206;64673;-79
2021/09/02 05:55:50;;;;;;;12.40;9.50;;;;;;;17.31;87.50;99642.16;111006;1205;61098;-82
2021/09/02 05:58:17;;;;;;;10.00;9.00;;;;;;;17.38;86.76;99641.60;111117;1205;63655;-79
2021/09/02 06:00:44;;;;;;;10.70;9.50;;;;;;;17.21;86.89;99645.72;111022;1203;61009;-79
2021/09/02 06:03:11;;;;;;;11.30;10.10;;;;;;;17.32;86.40;99646.06;111019;1205;61092;-79
2021/09/02 06:05:37;;;;;;;10.30;9.30;;;;;;;17.32;86.03;99646.77;111036;1205;66003;-80
2021/09/02 06:08:04;;;;;;;11.40;9.60;;;;;;;17.27;85.36;99646.63;111022;1205;61121;-80
2021/09/02 06:10:33;;;;;;;12.50;10.20;;;;;;;17.12;85.47;99658.02;110944;1205;72708;-79
2021/09/02 06:13:01;;;;;;;10.60;9.50;;;;;;;17.25;85.35;99662.67;111007;1205;61016;-79
2021/09/02 06:15:28;;;;;;;11.20;9.30;;;;;;;17.06;85.38;99666.94;111120;1205;60978;-79
2021/09/02 06:17:56;;;;;;;13.20;10.80;;;;;;;16.85;85.81;99670.64;111144;1204;65679;-79
2021/09/02 06:20:25;;;;;;;12.70;10.60;;;;;;;16.67;85.82;99674.20;111052;1203;61145;-79
2021/09/02 06:22:52;;;;;;;13.30;11.80;;;;;;;16.60;86.00;99676.37;111092;1205;63960;-80
2021/09/02 06:25:19;;;;;;;12.70;11.20;;;;;;;16.40;86.09;99675.52;111107;1205;61059;-80
2021/09/02 06:27:46;;;;;;;13.50;12.10;;;;;;;16.23;87.14;99679.89;111233;1200;61047;-82
2021/09/02 06:30:13;;;;;;;14.40;13.00;;;;;;;16.17;87.14;99685.18;111287;1205;66981;-82
2021/09/02 06:32:40;;;;;;;14.70;13.20;;;;;;;16.16;87.29;99681.73;111338;1205;61049;-83
2021/09/02 06:35:07;;;;;;;14.50;13.10;;;;;;;16.34;86.88;99681.70;111281;1196;63812;-81
2021/09/02 06:37:33;;;;;;;14.20;12.80;;;;;;;16.75;85.78;99685.61;111289;1198;61043;-82
2021/09/02 06:40:00;;;;;;;16.50;14.80;;;;;;;16.95;85.43;99687.21;111260;1198;61053;-82
2021/09/02 06:42:29;;;;;;;17.00;15.30;;;;;;;17.03;85.33;99685.79;111317;1204;66000;-82
2021/09/02 06:44:56;;;;;;;17.70;15.90;;;;;;;17.17;84.87;99686.14;111327;1204;69993;-84
2021/09/02 06:47:22;;;;;;;18.30;15.80;;;;;;;17.18;85.31;99684.95;111350;1204;64199;-81
2021/09/02 06:49:49;;;;;;;19.70;17.80;;;;;;;17.25;85.08;99687.80;111291;1198;61123;-83
2021/09/02 06:52:16;;;;;;;19.00;17.20;;;;;;;17.18;84.45;99690.89;111610;1198;61102;-88
2021/09/02 06:54:42;;;;;;;17.00;15.20;;;;;;;17.20;84.71;99697.74;111675;1205;66010;-84
2021/09/02 06:57:09;;;;;;;14.70;13.10;;;;;;;17.37;84.63;99699.29;111279;1204;68540;-85
2021/09/02 06:59:36;;;;;;;16.40;14.70;;;;;;;17.52;84.57;99704.20;111475;1205;63970;-89
2021/09/02 07:02:03;;;;;;;17.70;15.90;;;;;;;17.64;84.15;99703.89;111872;1198;61107;-84
2021/09/02 07:04:29;;;;;;;15.00;13.70;;;;;;;17.67;83.73;99702.55;111372;1204;61114;-84
2021/09/02 07:06:56;;;;;;;14.10;12.90;;;;;;;17.67;83.29;99708.69;111197;1205;64387;-85
2021/09/02 07:09:24;;;;;;;15.40;14.00;;;;;;;17.46;82.48;99710.96;111219;1205;61093;-86
2021/09/02 07:11:50;;;;;;;15.30;13.70;;;;;;;17.26;83.33;99710.52;111184;1205;63936;-86
2021/09/02 07:14:17;;;;;;;14.00;12.50;;;;;;;17.24;84.25;99714.09;111166;1197;61764;-86
2021/09/02 07:16:44;;;;;;;15.50;13.90;;;;;;;17.29;84.39;99714.16;111193;1204;61173;-86
2021/09/02 07:19:10;;;;;;;15.10;13.60;;;;;;;17.38;84.72;99713.29;111205;1204;64736;-86
2021/09/02 07:21:37;;;;;;;14.10;12.80;;;;;;;17.47;84.61;99718.24;111300;1203;61216;-86
2021/09/02 07:24:04;;;;;;;15.20;13.60;;;;;;;17.54;83.80;99721.43;111267;1204;63998;-86
2021/09/02 07:26:31;;;;;;;14.90;13.40;;;;;;;17.52;83.41;99724.42;111257;1204;60989;-84
2021/09/02 07:28:57;;;;;;;16.90;15.30;;;;;;;17.50;82.79;99725.06;111240;1197;60987;-84
2021/09/02 07:31:24;;;;;;;18.00;15.80;;;;;;;17.46;82.68;99725.34;111272;1204;64626;-84
2021/09/02 07:33:51;;;;;;;19.10;17.00;;;;;;;17.51;83.37;99731.02;111252;1204;61064;-86
2021/09/02 07:36:17;;;;;;;15.70;14.20;;;;;;;17.52;82.84;99733.25;111235;1204;63709;-85
2021/09/02 07:38:44;;;;;;;16.90;15.30;;;;;;;17.46;82.89;99736.16;111222;1196;61075;-85
2021/09/02 07:41:11;;;;;;;16.50;13.60;;;;;;;17.70;83.14;99736.64;111250;1204;61099;-85
2021/09/02 07:43:37;;;;;;;15.70;13.60;;;;;;;18.09;82.61;99733.89;111211;1204;66013;-85
2021/09/02 07:46:04;;;;;;;13.90;12.60;;;;;;;18.37;81.71;99732.89;111258;1204;61015;-86
2021/09/02 07:48:30;;;;;;;13.70;12.30;;;;;;;18.52;81.36;99734.77;111258;1204;63916;-84
2021/09/02 07:50:57;;;;;;;13.20;11.80;;;;;;;18.58;81.11;99743.83;111295;1204;61183;-86
2021/09/02 07:53:24;;;;;;;14.20;12.80;;;;;;;18.50;80.25;99743.27;111298;1196;60939;-84
2021/09/02 07:55:50;;;;;;;12.50;11.20;;;;;;;18.32;79.70;99743.80;111227;1204;64618;-84
2021/09/02 07:58:17;;;;;;;12.80;11.60;;;;;;;18.11;79.89;99746.27;111301;1200;61082;-85
2021/09/02 08:00:44;;;;;;;13.10;11.40;;;;;;;17.91;80.07;99751.63;111240;1196;64823;-84
2021/09/02 08:03:10;;;;;;;12.80;11.30;;;;;;;17.91;80.57;99748.73;111268;1204;61024;-84
2021/09/02 08:05:37;;;;;;;12.20;10.90;;;;;;;18.15;80.16;99747.22;111263;1197;61011;-84
2021/09/02 08:08:04;;;;;;;12.30;11.20;;;;;;;18.38;79.80;99744.28;111200;1197;65989;-84
2021/09/02 08:10:30;;;;;;;11.00;10.10;;;;;;;18.71;79.49;99746.27;111268;1204;61053;-83
2021/09/02 08:12:57;;;;;;;11.70;10.50;;;;;;;18.81;78.66;99746.42;111227;1204;63990;-84
2021/09/02 08:15:25;;;;;;;12.60;11.40;;;;;;;18.69;78.76;99745.20;111143;1203;60983;-84
2021/09/02 08:17:53;;;;;;;11.20;10.20;;;;;;;18.48;78.26;99751.66;111291;1200;61168;-84
2021/09/02 08:20:21;;;;;;;10.70;9.70;;;;;;;18.33;77.98;99753.23;111151;1204;64651;-85
2021/09/02 08:22:48;;;;;;;11.40;10.30;;;;;;;18.40;78.59;99751.16;111222;1204;61098;-85
2021/09/02 08:25:15;;;;;;;9.40;8.60;;;;;;;18.51;78.68;99753.95;111185;1204;63682;-84
2021/09/02 08:27:44;;;;;;;10.40;9.40;;;;;;;18.74;77.84;99754.43;111223;1204;61117;-85
2021/09/02 08:30:14;;;;;;;11.20;9.60;;;;;;;18.95;76.73;99757.26;111261;1195;61123;-83
2021/09/02 08:32:48;;;;;;;10.50;9.10;;;;;;;18.87;75.70;99756.38;111271;1204;66029;-85
2021/09/02 08:35:28;;;;;;;9.40;8.60;;;;;;;18.69;75.69;99754.55;111291;1204;61092;-85
2021/09/02 08:38:00;;;;;;;9.40;8.60;;;;;;;18.59;76.05;99754.48;111257;1204;63421;-84
2021/09/02 08:40:32;;;;;;;11.30;9.30;;;;;;;18.59;75.36;99755.55;111291;1203;61613;-84
2021/09/02 08:42:59;;;;;;;8.70;7.90;;;;;;;18.53;74.97;99752.71;111224;1197;61063;-84
2021/09/02 08:45:28;;;;;;;8.70;7.80;;;;;;;18.68;74.93;99757.51;111233;1197;65664;-84
2021/09/02 08:47:55;;;;;;;9.20;8.30;;;;;;;18.82;74.64;99754.83;111337;1204;61123;-85
2021/09/02 08:50:25;;;;;;;9.60;8.70;;;;;;;18.84;74.83;99751.08;111245;1204;64139;-84
2021/09/02 08:52:52;;;;;;;8.50;7.60;;;;;;;18.75;74.53;99755.45;111304;1204;61098;-84
2021/09/02 08:55:20;;;;;;;8.60;7.80;;;;;;;18.64;73.83;99761.65;111210;1204;61101;-84
2021/09/02 08:57:47;;;;;;;7.90;7.10;;;;;;;18.83;73.92;99760.83;111250;1203;64633;-84
2021/09/02 09:00:15;;;;;;;7.60;6.40;;;;;;;19.15;74.01;99763.39;111280;1203;61089;-84
2021/09/02 09:02:42;;;;;;;8.50;7.00;;;;;;;19.25;74.03;99763.95;111287;1204;63804;-86
2021/09/02 09:05:11;;;;;;;7.40;6.80;;;;;;;19.28;73.58;99763.65;111213;1197;61763;-84
2021/09/02 09:07:41;;;;;;;6.70;6.00;;;;;;;19.37;71.85;99764.27;111179;1204;61062;-84
2021/09/02 09:10:14;;;;;;;6.60;6.00;;;;;;;19.42;72.20;99764.74;111253;1204;64408;-84
2021/09/02 09:12:42;;;;;;;6.20;5.40;;;;;;;19.61;70.28;99763.75;111205;1204;61037;-84
2021/09/02 09:15:16;;;;;;;7.00;5.60;;;;;;;19.58;68.63;99759.70;111220;1204;63607;-83
2021/09/02 09:17:46;;;;;;;7.10;6.20;;;;;;;19.64;69.32;99755.02;111266;1204;61002;-86
2021/09/02 09:20:16;;;;;;;5.80;5.10;;;;;;;19.62;68.34;99748.30;111337;1197;61102;-84
2021/09/02 09:22:48;;;;;;;6.70;6.10;;;;;;;19.54;68.30;99744.86;111296;1205;64624;-86
2021/09/02 09:25:16;;;;;;;5.20;4.70;;;;;;;19.69;68.21;99748.02;111270;1204;61015;-85
2021/09/02 09:27:50;;;;;;;6.70;5.00;;;;;;;19.67;67.66;99751.13;111223;1205;64040;-86
2021/09/02 09:30:21;;;;;;;5.50;5.00;;;;;;;19.55;68.24;99752.73;111286;1197;61438;-85
2021/09/02 09:32:52;;;;;;;5.60;5.10;;;;;;;19.28;67.53;99751.98;111211;1198;61113;-85
2021/09/02 09:35:22;;;;;;;4.50;4.10;;;;;;;19.20;67.90;99752.68;111239;1197;64648;-86
2021/09/02 09:38:01;;;;;;;5.60;4.20;;;;;;;19.50;68.47;99747.82;111239;1205;61066;-85
2021/09/02 09:40:28;;;;;;;4.90;4.40;;;;;;;19.84;68.07;99748.14;111265;1205;62602;-86
2021/09/02 09:42:59;;;;;;;5.40;4.90;;;;;;;20.09;66.64;99748.59;111258;1197;61015;-85
2021/09/02 09:45:48;;;;;;;5.30;4.80;;;;;;;20.25;65.70;99750.54;111226;1204;61079;-85
2021/09/02 09:48:33;;;;;;;6.70;5.50;;;;;;;20.39;66.18;99751.95;111244;1204;65880;-84
2021/09/02 09:51:03;;;;;;;6.00;5.50;;;;;;;20.22;64.84;99754.95;111317;1204;61078;-81
2021/09/02 09:53:30;;;;;;;5.10;4.60;;;;;;;20.11;65.69;99758.73;111315;1204;62347;-86
2021/09/02 09:55:58;;;;;;;5.50;5.00;;;;;;;20.26;66.48;99755.50;111483;1204;60992;-82
2021/09/02 09:58:26;;;;;;;4.60;4.20;;;;;;;20.48;66.70;99753.92;111373;1197;61073;-84
2021/09/02 10:00:59;;;;;;;4.90;4.50;;;;;;;20.59;65.31;99751.98;111376;1200;65695;-84
2021/09/02 10:03:29;;;;;;;5.80;5.20;;;;;;;20.66;65.28;99754.61;111379;1204;60943;-85
2021/09/02 10:06:03;;;;;;;6.10;5.20;;;;;;;20.71;65.19;99755.49;111213;1206;64053;-90
2021/09/02 10:08:33;;;;;;;5.80;5.30;;;;;;;20.76;65.47;99751.67;111202;1204;61027;-87
2021/09/02 10:11:02;;;;;;;7.30;5.10;;;;;;;20.74;64.92;99752.96;111248;1197;61069;-83
2021/09/02 10:13:30;;;;;;;5.70;5.20;;;;;;;20.67;65.01;99755.95;111282;1206;65702;-84
2021/09/02 10:15:58;;;;;;;5.60;5.10;;;;;;;20.64;65.38;99757.47;111259;1205;61089;-84
2021/09/02 10:18:27;;;;;;;5.80;5.10;;;;;;;20.52;64.82;99755.58;111162;1205;64734;-84
2021/09/02 10:20:55;;;;;;;5.40;4.90;;;;;;;20.33;64.63;99757.84;111105;1204;61187;-85
2021/09/02 10:23:26;;;;;;;5.20;4.50;;;;;;;20.11;63.99;99766.17;111198;1197;61120;-84
2021/09/02 10:25:53;;;;;;;5.10;4.60;;;;;;;19.93;64.85;99768.15;111250;1204;67082;-85
2021/09/02 10:28:29;;;;;;;5.80;4.80;;;;;;;20.11;65.23;99764.65;111201;1198;61210;-85
2021/09/02 10:31:01;;;;;;;5.40;4.80;;;;;;;20.49;65.53;99765.54;111237;1204;63752;-85
2021/09/02 10:33:41;;;;;;;4.60;4.20;;;;;;;20.88;65.00;99767.41;111268;1204;61028;-85
2021/09/02 10:36:13;;;;;;;5.40;4.90;;;;;;;20.91;64.54;99766.05;111214;1197;61072;-84
2021/09/02 10:38:50;;;;;;;5.20;4.70;;;;;;;20.75;64.20;99765.84;111159;1204;65678;-83
2021/09/02 10:41:43;;;;;;;5.00;4.50;;;;;;;20.63;63.49;99769.34;111242;1204;61027;-84
2021/09/02 10:44:18;;;;;;;4.90;4.40;;;;;;;20.68;63.63;99766.89;111234;1204;62693;-84
2021/09/02 10:46:53;;;;;;;4.60;4.20;;;;;;;20.72;63.18;99767.77;111231;1196;61088;-83
2021/09/02 10:49:27;;;;;;;5.60;3.80;;;;;;;20.58;63.51;99772.70;111277;1197;61197;-85
2021/09/02 10:51:58;;;;;;;4.80;4.10;;;;;;;20.40;62.57;99773.31;111201;1205;64618;-85
2021/09/02 10:54:32;;;;;;;4.60;3.90;;;;;;;20.39;62.77;99773.44;111175;1204;61065;-83
2021/09/02 10:57:01;;;;;;;5.10;3.90;;;;;;;20.28;62.40;99773.55;111180;1205;63875;-84
2021/09/02 10:59:52;;;;;;;4.40;3.90;;;;;;;20.12;62.75;99773.91;111265;1205;61179;-84
2021/09/02 11:02:24;;;;;;;3.90;3.60;;;;;;;19.92;62.26;99775.29;111272;1197;61069;-84
2021/09/02 11:04:57;;;;;;;5.30;4.00;;;;;;;19.97;63.00;99771.25;111228;1204;65983;-86
2021/09/02 11:07:43;;;;;;;5.70;3.80;;;;;;;20.18;62.95;99769.83;111249;1204;61153;-83
2021/09/02 11:10:21;;;;;;;4.40;3.70;;;;;;;20.36;62.01;99764.31;111153;1197;63903;-86
2021/09/02 11:12:59;;;;;;;4.00;3.70;;;;;;;20.42;62.26;99766.67;111215;1204;61093;-83
2021/09/02 11:15:28;;;;;;;5.50;3.70;;;;;;;20.54;61.12;99770.73;111246;1204;61016;-84
2021/09/02 11:17:57;;;;;;;4.60;4.00;;;;;;;20.54;60.76;99770.84;111251;1204;65716;-84